sensor_id;sensor_type;location;lat;lon;timestamp;P1;durP1;ratioP1;P2;durP2;ratioP2
7917;SDS011;4004;42.624;23.386;2023-06-26T00:01:50;22.30;;;20.00;;
7917;SDS011;4004;42.624;23.386;2023-06-26T00:04:17;21.97;;;19.80;;
7917;SDS011;4004;42.624;23.386;2023-06-26T00:06:44;21.57;;;18.03;;
7917;SDS011;4004;42.624;23.386;2023-06-26T00:09:11;20.63;;;18.50;;
7917;SDS011;4004;42.624;23.386;2023-06-26T00:11:39;20.60;;;18.37;;
7917;SDS011;4004;42.624;23.386;2023-06-26T00:14:06;21.20;;;18.80;;
7917;SDS011;4004;42.624;23.386;2023-06-26T00:16:33;19.73;;;17.90;;
7917;SDS011;4004;42.624;23.386;2023-06-26T00:18:59;19.90;;;17.80;;
7917;SDS011;4004;42.624;23.386;2023-06-26T00:21:26;20.40;;;18.37;;
7917;SDS011;4004;42.624;23.386;2023-06-26T00:23:53;18.40;;;16.60;;
7917;SDS011;4004;42.624;23.386;2023-06-26T00:26:20;18.57;;;16.60;;
7917;SDS011;4004;42.624;23.386;2023-06-26T00:28:48;18.77;;;16.20;;
7917;SDS011;4004;42.624;23.386;2023-06-26T00:31:14;17.70;;;15.80;;
7917;SDS011;4004;42.624;23.386;2023-06-26T00:33:41;18.57;;;16.60;;
7917;SDS011;4004;42.624;23.386;2023-06-26T00:36:08;17.37;;;15.60;;
7917;SDS011;4004;42.624;23.386;2023-06-26T00:38:35;15.90;;;14.40;;
7917;SDS011;4004;42.624;23.386;2023-06-26T00:41:02;19.00;;;15.07;;
7917;SDS011;4004;42.624;23.386;2023-06-26T00:43:29;15.97;;;13.70;;
7917;SDS011;4004;42.624;23.386;2023-06-26T00:45:57;16.87;;;15.07;;
7917;SDS011;4004;42.624;23.386;2023-06-26T00:48:24;17.40;;;15.80;;
7917;SDS011;4004;42.624;23.386;2023-06-26T00:50:51;16.30;;;13.87;;
7917;SDS011;4004;42.624;23.386;2023-06-26T00:53:18;14.87;;;13.27;;
7917;SDS011;4004;42.624;23.386;2023-06-26T00:55:45;15.43;;;13.90;;
7917;SDS011;4004;42.624;23.386;2023-06-26T00:58:12;15.50;;;13.90;;
7917;SDS011;4004;42.624;23.386;2023-06-26T01:00:39;15.53;;;12.10;;
7917;SDS011;4004;42.624;23.386;2023-06-26T01:03:11;14.00;;;12.70;;
7917;SDS011;4004;42.624;23.386;2023-06-26T01:05:38;15.83;;;12.87;;
7917;SDS011;4004;42.624;23.386;2023-06-26T01:08:05;13.47;;;11.90;;
7917;SDS011;4004;42.624;23.386;2023-06-26T01:10:32;14.37;;;12.07;;
7917;SDS011;4004;42.624;23.386;2023-06-26T01:12:59;14.50;;;13.00;;
7917;SDS011;4004;42.624;23.386;2023-06-26T01:15:26;12.90;;;11.60;;
7917;SDS011;4004;42.624;23.386;2023-06-26T01:17:53;13.47;;;12.10;;
7917;SDS011;4004;42.624;23.386;2023-06-26T01:20:29;13.33;;;12.10;;
7917;SDS011;4004;42.624;23.386;2023-06-26T01:22:59;12.97;;;11.60;;
7917;SDS011;4004;42.624;23.386;2023-06-26T01:25:33;16.17;;;11.83;;
7917;SDS011;4004;42.624;23.386;2023-06-26T01:28:08;13.63;;;12.17;;
7917;SDS011;4004;42.624;23.386;2023-06-26T01:30:37;12.77;;;11.60;;
7917;SDS011;4004;42.624;23.386;2023-06-26T01:33:06;14.67;;;12.87;;
7917;SDS011;4004;42.624;23.386;2023-06-26T01:35:33;13.20;;;11.47;;
7917;SDS011;4004;42.624;23.386;2023-06-26T01:38:13;14.47;;;12.07;;
7917;SDS011;4004;42.624;23.386;2023-06-26T01:40:41;13.00;;;11.77;;
7917;SDS011;4004;42.624;23.386;2023-06-26T01:43:11;13.87;;;12.57;;
7917;SDS011;4004;42.624;23.386;2023-06-26T01:45:45;13.07;;;11.77;;
7917;SDS011;4004;42.624;23.386;2023-06-26T01:48:14;14.17;;;12.53;;
7917;SDS011;4004;42.624;23.386;2023-06-26T01:50:44;13.63;;;12.23;;
7917;SDS011;4004;42.624;23.386;2023-06-26T01:53:12;13.33;;;12.03;;
7917;SDS011;4004;42.624;23.386;2023-06-26T01:55:45;13.30;;;11.93;;
7917;SDS011;4004;42.624;23.386;2023-06-26T01:58:18;14.43;;;12.47;;
7917;SDS011;4004;42.624;23.386;2023-06-26T02:00:46;14.47;;;13.07;;
7917;SDS011;4004;42.624;23.386;2023-06-26T02:03:13;13.23;;;11.93;;
7917;SDS011;4004;42.624;23.386;2023-06-26T02:05:40;13.23;;;12.03;;
7917;SDS011;4004;42.624;23.386;2023-06-26T02:08:07;13.43;;;12.03;;
7917;SDS011;4004;42.624;23.386;2023-06-26T02:10:35;15.03;;;12.73;;
7917;SDS011;4004;42.624;23.386;2023-06-26T02:13:01;15.43;;;12.90;;
7917;SDS011;4004;42.624;23.386;2023-06-26T02:15:30;13.50;;;12.10;;
7917;SDS011;4004;42.624;23.386;2023-06-26T02:17:56;14.23;;;12.73;;
7917;SDS011;4004;42.624;23.386;2023-06-26T02:20:23;14.70;;;13.20;;
7917;SDS011;4004;42.624;23.386;2023-06-26T02:22:50;15.67;;;12.73;;
7917;SDS011;4004;42.624;23.386;2023-06-26T02:25:17;14.73;;;13.17;;
7917;SDS011;4004;42.624;23.386;2023-06-26T02:27:44;16.20;;;12.73;;
7917;SDS011;4004;42.624;23.386;2023-06-26T02:30:10;22.17;;;13.23;;
7917;SDS011;4004;42.624;23.386;2023-06-26T02:32:39;15.83;;;13.33;;
7917;SDS011;4004;42.624;23.386;2023-06-26T02:35:06;14.93;;;13.47;;
7917;SDS011;4004;42.624;23.386;2023-06-26T02:37:33;14.67;;;13.27;;
7917;SDS011;4004;42.624;23.386;2023-06-26T02:40:00;13.90;;;12.60;;
7917;SDS011;4004;42.624;23.386;2023-06-26T02:42:27;13.83;;;12.43;;
7917;SDS011;4004;42.624;23.386;2023-06-26T02:44:54;15.20;;;13.60;;
7917;SDS011;4004;42.624;23.386;2023-06-26T02:47:22;15.80;;;14.13;;
7917;SDS011;4004;42.624;23.386;2023-06-26T02:49:50;15.43;;;13.10;;
7917;SDS011;4004;42.624;23.386;2023-06-26T02:52:17;15.27;;;13.70;;
7917;SDS011;4004;42.624;23.386;2023-06-26T02:54:44;15.80;;;14.20;;
7917;SDS011;4004;42.624;23.386;2023-06-26T02:57:10;15.73;;;14.23;;
7917;SDS011;4004;42.624;23.386;2023-06-26T02:59:39;16.70;;;15.10;;
7917;SDS011;4004;42.624;23.386;2023-06-26T03:02:06;16.07;;;14.57;;
7917;SDS011;4004;42.624;23.386;2023-06-26T03:04:33;18.13;;;15.93;;
7917;SDS011;4004;42.624;23.386;2023-06-26T03:07:03;16.27;;;14.63;;
7917;SDS011;4004;42.624;23.386;2023-06-26T03:09:30;16.37;;;14.87;;
7917;SDS011;4004;42.624;23.386;2023-06-26T03:11:57;17.57;;;15.73;;
7917;SDS011;4004;42.624;23.386;2023-06-26T03:14:23;16.33;;;14.83;;
7917;SDS011;4004;42.624;23.386;2023-06-26T03:16:52;16.97;;;15.37;;
7917;SDS011;4004;42.624;23.386;2023-06-26T03:19:22;18.30;;;16.57;;
7917;SDS011;4004;42.624;23.386;2023-06-26T03:21:49;16.87;;;15.27;;
7917;SDS011;4004;42.624;23.386;2023-06-26T03:24:17;17.43;;;14.63;;
7917;SDS011;4004;42.624;23.386;2023-06-26T03:26:44;16.03;;;14.30;;
7917;SDS011;4004;42.624;23.386;2023-06-26T03:29:11;15.97;;;14.57;;
7917;SDS011;4004;42.624;23.386;2023-06-26T03:31:38;16.03;;;14.63;;
7917;SDS011;4004;42.624;23.386;2023-06-26T03:34:04;16.37;;;14.17;;
7917;SDS011;4004;42.624;23.386;2023-06-26T03:36:31;17.17;;;15.67;;
7917;SDS011;4004;42.624;23.386;2023-06-26T03:38:58;15.87;;;13.87;;
7917;SDS011;4004;42.624;23.386;2023-06-26T03:41:27;32.63;;;29.37;;
7917;SDS011;4004;42.624;23.386;2023-06-26T03:43:54;17.27;;;15.43;;
7917;SDS011;4004;42.624;23.386;2023-06-26T03:46:21;16.50;;;14.80;;
7917;SDS011;4004;42.624;23.386;2023-06-26T03:48:48;15.53;;;13.97;;
7917;SDS011;4004;42.624;23.386;2023-06-26T03:51:15;19.13;;;14.60;;
7917;SDS011;4004;42.624;23.386;2023-06-26T03:53:42;16.50;;;14.43;;
7917;SDS011;4004;42.624;23.386;2023-06-26T03:56:09;15.87;;;14.33;;
7917;SDS011;4004;42.624;23.386;2023-06-26T03:58:37;15.67;;;14.07;;
7917;SDS011;4004;42.624;23.386;2023-06-26T04:01:04;16.87;;;15.13;;
7917;SDS011;4004;42.624;23.386;2023-06-26T04:03:30;15.87;;;14.33;;
7917;SDS011;4004;42.624;23.386;2023-06-26T04:05:57;16.83;;;15.27;;
7917;SDS011;4004;42.624;23.386;2023-06-26T04:08:24;16.47;;;15.00;;
7917;SDS011;4004;42.624;23.386;2023-06-26T04:10:51;22.43;;;14.90;;
7917;SDS011;4004;42.624;23.386;2023-06-26T04:13:18;29.80;;;26.03;;
7917;SDS011;4004;42.624;23.386;2023-06-26T04:15:47;17.47;;;15.73;;
7917;SDS011;4004;42.624;23.386;2023-06-26T04:18:13;15.53;;;13.90;;
7917;SDS011;4004;42.624;23.386;2023-06-26T04:20:41;12.90;;;11.63;;
7917;SDS011;4004;42.624;23.386;2023-06-26T04:23:31;12.20;;;10.90;;
7917;SDS011;4004;42.624;23.386;2023-06-26T04:25:57;12.87;;;11.70;;
7917;SDS011;4004;42.624;23.386;2023-06-26T04:28:24;12.83;;;11.60;;
7917;SDS011;4004;42.624;23.386;2023-06-26T04:30:52;12.47;;;11.17;;
7917;SDS011;4004;42.624;23.386;2023-06-26T04:33:19;11.60;;;10.70;;
7917;SDS011;4004;42.624;23.386;2023-06-26T04:35:46;11.30;;;10.13;;
7917;SDS011;4004;42.624;23.386;2023-06-26T04:38:14;13.47;;;10.70;;
7917;SDS011;4004;42.624;23.386;2023-06-26T04:40:41;11.97;;;10.77;;
7917;SDS011;4004;42.624;23.386;2023-06-26T04:43:07;15.43;;;10.20;;
7917;SDS011;4004;42.624;23.386;2023-06-26T04:45:34;13.17;;;10.57;;
7917;SDS011;4004;42.624;23.386;2023-06-26T04:48:03;11.87;;;10.77;;
7917;SDS011;4004;42.624;23.386;2023-06-26T04:50:30;12.70;;;10.30;;
7917;SDS011;4004;42.624;23.386;2023-06-26T04:52:58;19.27;;;10.70;;
7917;SDS011;4004;42.624;23.386;2023-06-26T04:55:25;13.97;;;10.90;;
7917;SDS011;4004;42.624;23.386;2023-06-26T04:57:52;12.30;;;11.00;;
7917;SDS011;4004;42.624;23.386;2023-06-26T05:00:19;15.63;;;11.07;;
7917;SDS011;4004;42.624;23.386;2023-06-26T05:02:46;17.27;;;11.97;;
7917;SDS011;4004;42.624;23.386;2023-06-26T05:05:14;13.13;;;11.93;;
7917;SDS011;4004;42.624;23.386;2023-06-26T05:07:41;18.53;;;12.00;;
7917;SDS011;4004;42.624;23.386;2023-06-26T05:10:08;24.57;;;12.63;;
7917;SDS011;4004;42.624;23.386;2023-06-26T05:12:35;15.03;;;12.97;;
7917;SDS011;4004;42.624;23.386;2023-06-26T05:15:02;25.20;;;13.63;;
7917;SDS011;4004;42.624;23.386;2023-06-26T05:17:29;17.27;;;13.10;;
7917;SDS011;4004;42.624;23.386;2023-06-26T05:19:55;13.27;;;11.97;;
7917;SDS011;4004;42.624;23.386;2023-06-26T05:22:24;14.50;;;13.03;;
7917;SDS011;4004;42.624;23.386;2023-06-26T05:24:52;15.00;;;13.60;;
7917;SDS011;4004;42.624;23.386;2023-06-26T05:27:21;15.93;;;13.00;;
7917;SDS011;4004;42.624;23.386;2023-06-26T05:29:49;15.27;;;13.17;;
7917;SDS011;4004;42.624;23.386;2023-06-26T05:32:16;17.80;;;12.90;;
7917;SDS011;4004;42.624;23.386;2023-06-26T05:34:44;14.03;;;12.63;;
7917;SDS011;4004;42.624;23.386;2023-06-26T05:37:13;16.67;;;12.33;;
7917;SDS011;4004;42.624;23.386;2023-06-26T05:39:45;17.20;;;12.97;;
7917;SDS011;4004;42.624;23.386;2023-06-26T05:42:12;14.90;;;13.50;;
7917;SDS011;4004;42.624;23.386;2023-06-26T05:44:39;15.07;;;13.47;;
7917;SDS011;4004;42.624;23.386;2023-06-26T05:47:06;24.17;;;14.47;;
7917;SDS011;4004;42.624;23.386;2023-06-26T05:49:33;25.17;;;15.00;;
7917;SDS011;4004;42.624;23.386;2023-06-26T05:52:00;17.67;;;13.47;;
7917;SDS011;4004;42.624;23.386;2023-06-26T05:54:27;18.17;;;11.30;;
7917;SDS011;4004;42.624;23.386;2023-06-26T05:56:56;15.20;;;11.77;;
7917;SDS011;4004;42.624;23.386;2023-06-26T05:59:24;13.60;;;11.37;;
7917;SDS011;4004;42.624;23.386;2023-06-26T06:01:52;13.90;;;11.43;;
7917;SDS011;4004;42.624;23.386;2023-06-26T06:04:19;21.40;;;13.57;;
7917;SDS011;4004;42.624;23.386;2023-06-26T06:06:46;17.77;;;13.47;;
7917;SDS011;4004;42.624;23.386;2023-06-26T06:09:13;20.63;;;14.67;;
7917;SDS011;4004;42.624;23.386;2023-06-26T06:11:40;17.80;;;12.77;;
7917;SDS011;4004;42.624;23.386;2023-06-26T06:14:08;16.80;;;12.33;;
7917;SDS011;4004;42.624;23.386;2023-06-26T06:16:35;18.20;;;13.00;;
7917;SDS011;4004;42.624;23.386;2023-06-26T06:19:03;15.67;;;12.57;;
7917;SDS011;4004;42.624;23.386;2023-06-26T06:21:32;16.57;;;11.60;;
7917;SDS011;4004;42.624;23.386;2023-06-26T06:23:58;17.97;;;12.63;;
7917;SDS011;4004;42.624;23.386;2023-06-26T06:26:26;26.87;;;12.17;;
7917;SDS011;4004;42.624;23.386;2023-06-26T06:28:53;20.00;;;12.00;;
7917;SDS011;4004;42.624;23.386;2023-06-26T06:31:21;14.50;;;10.30;;
7917;SDS011;4004;42.624;23.386;2023-06-26T06:33:48;22.63;;;10.90;;
7917;SDS011;4004;42.624;23.386;2023-06-26T06:36:15;18.87;;;10.80;;
7917;SDS011;4004;42.624;23.386;2023-06-26T06:38:42;14.47;;;10.97;;
7917;SDS011;4004;42.624;23.386;2023-06-26T06:41:09;20.53;;;9.97;;
7917;SDS011;4004;42.624;23.386;2023-06-26T06:43:36;11.67;;;8.70;;
7917;SDS011;4004;42.624;23.386;2023-06-26T06:46:03;13.17;;;10.13;;
7917;SDS011;4004;42.624;23.386;2023-06-26T06:48:31;10.13;;;9.13;;
7917;SDS011;4004;42.624;23.386;2023-06-26T06:50:58;16.53;;;9.63;;
7917;SDS011;4004;42.624;23.386;2023-06-26T06:53:25;13.57;;;10.37;;
7917;SDS011;4004;42.624;23.386;2023-06-26T06:55:52;10.33;;;9.33;;
7917;SDS011;4004;42.624;23.386;2023-06-26T06:58:19;14.87;;;9.33;;
7917;SDS011;4004;42.624;23.386;2023-06-26T07:00:46;10.47;;;8.87;;
7917;SDS011;4004;42.624;23.386;2023-06-26T07:03:13;10.13;;;8.67;;
7917;SDS011;4004;42.624;23.386;2023-06-26T07:05:41;14.17;;;8.50;;
7917;SDS011;4004;42.624;23.386;2023-06-26T07:08:08;9.47;;;8.53;;
7917;SDS011;4004;42.624;23.386;2023-06-26T07:10:35;17.37;;;9.20;;
7917;SDS011;4004;42.624;23.386;2023-06-26T07:13:02;17.37;;;9.47;;
7917;SDS011;4004;42.624;23.386;2023-06-26T07:15:29;11.57;;;7.67;;
7917;SDS011;4004;42.624;23.386;2023-06-26T07:17:56;9.87;;;7.87;;
7917;SDS011;4004;42.624;23.386;2023-06-26T07:20:22;8.20;;;7.40;;
7917;SDS011;4004;42.624;23.386;2023-06-26T07:22:52;8.60;;;7.10;;
7917;SDS011;4004;42.624;23.386;2023-06-26T07:25:19;10.50;;;7.40;;
7917;SDS011;4004;42.624;23.386;2023-06-26T07:27:45;9.30;;;7.10;;
7917;SDS011;4004;42.624;23.386;2023-06-26T07:30:12;12.03;;;7.43;;
7917;SDS011;4004;42.624;23.386;2023-06-26T07:32:39;10.77;;;6.40;;
7917;SDS011;4004;42.624;23.386;2023-06-26T07:35:07;10.07;;;6.60;;
7917;SDS011;4004;42.624;23.386;2023-06-26T07:37:34;7.07;;;6.27;;
7917;SDS011;4004;42.624;23.386;2023-06-26T07:40:02;9.37;;;5.93;;
7917;SDS011;4004;42.624;23.386;2023-06-26T07:42:30;10.30;;;6.33;;
7917;SDS011;4004;42.624;23.386;2023-06-26T07:44:56;10.33;;;6.50;;
7917;SDS011;4004;42.624;23.386;2023-06-26T07:47:23;7.27;;;6.57;;
7917;SDS011;4004;42.624;23.386;2023-06-26T07:49:50;8.13;;;6.73;;
7917;SDS011;4004;42.624;23.386;2023-06-26T07:52:17;8.43;;;7.30;;
7917;SDS011;4004;42.624;23.386;2023-06-26T07:54:44;7.17;;;5.80;;
7917;SDS011;4004;42.624;23.386;2023-06-26T07:57:13;10.83;;;6.07;;
7917;SDS011;4004;42.624;23.386;2023-06-26T07:59:39;13.10;;;6.33;;
7917;SDS011;4004;42.624;23.386;2023-06-26T08:02:06;9.97;;;5.67;;
7917;SDS011;4004;42.624;23.386;2023-06-26T08:04:33;16.00;;;6.03;;
7917;SDS011;4004;42.624;23.386;2023-06-26T08:07:00;10.40;;;6.10;;
7917;SDS011;4004;42.624;23.386;2023-06-26T08:09:29;10.30;;;7.03;;
7917;SDS011;4004;42.624;23.386;2023-06-26T08:11:56;7.80;;;6.00;;
7917;SDS011;4004;42.624;23.386;2023-06-26T08:14:25;9.17;;;5.87;;
7917;SDS011;4004;42.624;23.386;2023-06-26T08:16:52;9.43;;;5.83;;
7917;SDS011;4004;42.624;23.386;2023-06-26T08:19:18;7.53;;;5.70;;
7917;SDS011;4004;42.624;23.386;2023-06-26T08:21:45;8.53;;;5.60;;
7917;SDS011;4004;42.624;23.386;2023-06-26T08:24:13;8.50;;;5.10;;
7917;SDS011;4004;42.624;23.386;2023-06-26T08:26:41;10.97;;;5.80;;
7917;SDS011;4004;42.624;23.386;2023-06-26T08:29:08;11.37;;;6.03;;
7917;SDS011;4004;42.624;23.386;2023-06-26T08:31:36;8.63;;;5.30;;
7917;SDS011;4004;42.624;23.386;2023-06-26T08:34:03;7.90;;;5.33;;
7917;SDS011;4004;42.624;23.386;2023-06-26T08:36:31;8.77;;;5.10;;
7917;SDS011;4004;42.624;23.386;2023-06-26T08:38:58;7.23;;;4.63;;
7917;SDS011;4004;42.624;23.386;2023-06-26T08:41:25;7.13;;;4.80;;
7917;SDS011;4004;42.624;23.386;2023-06-26T08:43:52;7.50;;;5.10;;
7917;SDS011;4004;42.624;23.386;2023-06-26T08:46:19;8.47;;;4.57;;
7917;SDS011;4004;42.624;23.386;2023-06-26T08:48:49;7.43;;;4.40;;
7917;SDS011;4004;42.624;23.386;2023-06-26T08:51:21;8.20;;;4.57;;
7917;SDS011;4004;42.624;23.386;2023-06-26T08:53:52;5.83;;;5.10;;
7917;SDS011;4004;42.624;23.386;2023-06-26T08:56:22;9.50;;;5.20;;
7917;SDS011;4004;42.624;23.386;2023-06-26T08:58:51;10.47;;;5.53;;
7917;SDS011;4004;42.624;23.386;2023-06-26T09:01:18;12.00;;;5.80;;
7917;SDS011;4004;42.624;23.386;2023-06-26T09:03:46;6.97;;;6.23;;
7917;SDS011;4004;42.624;23.386;2023-06-26T09:06:14;8.13;;;5.00;;
7917;SDS011;4004;42.624;23.386;2023-06-26T09:08:43;5.97;;;4.53;;
7917;SDS011;4004;42.624;23.386;2023-06-26T09:11:10;7.30;;;4.93;;
7917;SDS011;4004;42.624;23.386;2023-06-26T09:13:36;6.57;;;4.40;;
7917;SDS011;4004;42.624;23.386;2023-06-26T09:16:04;9.97;;;4.50;;
7917;SDS011;4004;42.624;23.386;2023-06-26T09:18:33;5.07;;;4.47;;
7917;SDS011;4004;42.624;23.386;2023-06-26T09:21:00;8.83;;;5.23;;
7917;SDS011;4004;42.624;23.386;2023-06-26T09:23:33;10.50;;;5.20;;
7917;SDS011;4004;42.624;23.386;2023-06-26T09:26:01;9.57;;;6.17;;
7917;SDS011;4004;42.624;23.386;2023-06-26T09:28:29;6.67;;;5.97;;
7917;SDS011;4004;42.624;23.386;2023-06-26T09:30:59;6.70;;;5.20;;
7917;SDS011;4004;42.624;23.386;2023-06-26T09:33:27;5.87;;;5.00;;
7917;SDS011;4004;42.624;23.386;2023-06-26T09:35:54;8.93;;;5.33;;
7917;SDS011;4004;42.624;23.386;2023-06-26T09:38:20;7.23;;;4.97;;
7917;SDS011;4004;42.624;23.386;2023-06-26T09:40:49;8.17;;;4.97;;
7917;SDS011;4004;42.624;23.386;2023-06-26T09:43:15;5.47;;;4.77;;
7917;SDS011;4004;42.624;23.386;2023-06-26T09:45:45;11.03;;;6.37;;
7917;SDS011;4004;42.624;23.386;2023-06-26T09:48:11;9.33;;;5.30;;
7917;SDS011;4004;42.624;23.386;2023-06-26T09:50:42;6.77;;;4.67;;
7917;SDS011;4004;42.624;23.386;2023-06-26T09:53:09;15.07;;;5.87;;
7917;SDS011;4004;42.624;23.386;2023-06-26T09:55:36;8.53;;;5.07;;
7917;SDS011;4004;42.624;23.386;2023-06-26T09:58:05;5.83;;;5.23;;
7917;SDS011;4004;42.624;23.386;2023-06-26T10:00:32;7.93;;;5.40;;
7917;SDS011;4004;42.624;23.386;2023-06-26T10:02:59;8.60;;;6.73;;
7917;SDS011;4004;42.624;23.386;2023-06-26T10:05:25;11.17;;;5.50;;
7917;SDS011;4004;42.624;23.386;2023-06-26T10:07:52;8.60;;;5.20;;
7917;SDS011;4004;42.624;23.386;2023-06-26T10:10:21;11.77;;;6.03;;
7917;SDS011;4004;42.624;23.386;2023-06-26T10:12:50;7.03;;;5.83;;
7917;SDS011;4004;42.624;23.386;2023-06-26T10:15:21;7.33;;;5.93;;
7917;SDS011;4004;42.624;23.386;2023-06-26T10:17:49;6.57;;;5.30;;
7917;SDS011;4004;42.624;23.386;2023-06-26T10:20:17;8.50;;;5.10;;
7917;SDS011;4004;42.624;23.386;2023-06-26T10:22:44;6.80;;;5.03;;
7917;SDS011;4004;42.624;23.386;2023-06-26T10:25:14;8.53;;;5.13;;
7917;SDS011;4004;42.624;23.386;2023-06-26T10:27:45;6.93;;;4.97;;
7917;SDS011;4004;42.624;23.386;2023-06-26T10:30:16;9.40;;;5.33;;
7917;SDS011;4004;42.624;23.386;2023-06-26T10:32:48;6.10;;;5.20;;
7917;SDS011;4004;42.624;23.386;2023-06-26T10:35:16;6.80;;;5.20;;
7917;SDS011;4004;42.624;23.386;2023-06-26T10:37:43;7.43;;;5.37;;
7917;SDS011;4004;42.624;23.386;2023-06-26T10:40:11;6.40;;;4.97;;
7917;SDS011;4004;42.624;23.386;2023-06-26T10:42:39;7.77;;;4.97;;
7917;SDS011;4004;42.624;23.386;2023-06-26T10:45:10;6.00;;;5.40;;
7917;SDS011;4004;42.624;23.386;2023-06-26T10:47:39;6.03;;;5.37;;
7917;SDS011;4004;42.624;23.386;2023-06-26T10:50:18;10.07;;;6.97;;
7917;SDS011;4004;42.624;23.386;2023-06-26T10:52:52;6.27;;;5.13;;
7917;SDS011;4004;42.624;23.386;2023-06-26T10:55:34;6.00;;;5.40;;
7917;SDS011;4004;42.624;23.386;2023-06-26T10:58:01;11.83;;;5.73;;
7917;SDS011;4004;42.624;23.386;2023-06-26T11:00:28;9.93;;;5.60;;
7917;SDS011;4004;42.624;23.386;2023-06-26T11:02:55;7.53;;;5.73;;
7917;SDS011;4004;42.624;23.386;2023-06-26T11:05:27;5.50;;;4.97;;
7917;SDS011;4004;42.624;23.386;2023-06-26T11:08:04;6.50;;;5.77;;
7917;SDS011;4004;42.624;23.386;2023-06-26T11:10:48;8.53;;;5.97;;
7917;SDS011;4004;42.624;23.386;2023-06-26T11:13:17;10.57;;;6.30;;
7917;SDS011;4004;42.624;23.386;2023-06-26T11:15:44;6.30;;;5.70;;
7917;SDS011;4004;42.624;23.386;2023-06-26T11:18:12;9.70;;;6.47;;
7917;SDS011;4004;42.624;23.386;2023-06-26T11:20:41;10.97;;;6.27;;
7917;SDS011;4004;42.624;23.386;2023-06-26T11:23:07;9.57;;;6.90;;
7917;SDS011;4004;42.624;23.386;2023-06-26T11:25:35;11.40;;;6.00;;
7917;SDS011;4004;42.624;23.386;2023-06-26T11:28:02;8.73;;;6.23;;
7917;SDS011;4004;42.624;23.386;2023-06-26T11:30:30;6.60;;;5.90;;
7917;SDS011;4004;42.624;23.386;2023-06-26T11:33:03;11.43;;;5.63;;
7917;SDS011;4004;42.624;23.386;2023-06-26T11:35:31;7.27;;;5.00;;
7917;SDS011;4004;42.624;23.386;2023-06-26T11:37:59;12.33;;;5.50;;
7917;SDS011;4004;42.624;23.386;2023-06-26T11:40:29;6.93;;;5.03;;
7917;SDS011;4004;42.624;23.386;2023-06-26T11:42:57;7.93;;;5.57;;
7917;SDS011;4004;42.624;23.386;2023-06-26T11:45:24;13.07;;;6.10;;
7917;SDS011;4004;42.624;23.386;2023-06-26T11:47:51;9.30;;;6.00;;
7917;SDS011;4004;42.624;23.386;2023-06-26T11:50:18;8.97;;;5.60;;
7917;SDS011;4004;42.624;23.386;2023-06-26T11:52:45;6.87;;;5.40;;
7917;SDS011;4004;42.624;23.386;2023-06-26T11:55:20;11.53;;;8.37;;
7917;SDS011;4004;42.624;23.386;2023-06-26T11:57:47;8.17;;;5.67;;
7917;SDS011;4004;42.624;23.386;2023-06-26T12:00:15;11.47;;;5.60;;
7917;SDS011;4004;42.624;23.386;2023-06-26T12:02:43;7.20;;;5.10;;
7917;SDS011;4004;42.624;23.386;2023-06-26T12:05:11;5.63;;;5.13;;
7917;SDS011;4004;42.624;23.386;2023-06-26T12:07:38;6.13;;;5.40;;
7917;SDS011;4004;42.624;23.386;2023-06-26T12:10:06;8.73;;;5.73;;
7917;SDS011;4004;42.624;23.386;2023-06-26T12:12:34;6.10;;;5.20;;
7917;SDS011;4004;42.624;23.386;2023-06-26T12:15:01;10.80;;;5.57;;
7917;SDS011;4004;42.624;23.386;2023-06-26T12:17:28;6.63;;;5.53;;
7917;SDS011;4004;42.624;23.386;2023-06-26T12:19:55;7.70;;;5.67;;
7917;SDS011;4004;42.624;23.386;2023-06-26T12:22:22;8.53;;;5.77;;
7917;SDS011;4004;42.624;23.386;2023-06-26T12:24:49;6.23;;;5.63;;
7917;SDS011;4004;42.624;23.386;2023-06-26T12:27:17;7.60;;;6.67;;
7917;SDS011;4004;42.624;23.386;2023-06-26T12:29:51;6.00;;;5.50;;
7917;SDS011;4004;42.624;23.386;2023-06-26T12:32:19;6.10;;;5.40;;
7917;SDS011;4004;42.624;23.386;2023-06-26T12:34:48;11.20;;;5.87;;
7917;SDS011;4004;42.624;23.386;2023-06-26T12:37:16;6.57;;;5.80;;
7917;SDS011;4004;42.624;23.386;2023-06-26T12:39:46;6.90;;;5.43;;
7917;SDS011;4004;42.624;23.386;2023-06-26T12:42:14;6.17;;;5.57;;
7917;SDS011;4004;42.624;23.386;2023-06-26T12:44:41;8.30;;;5.87;;
7917;SDS011;4004;42.624;23.386;2023-06-26T12:47:10;8.47;;;5.53;;
7917;SDS011;4004;42.624;23.386;2023-06-26T12:49:39;7.10;;;6.30;;
7917;SDS011;4004;42.624;23.386;2023-06-26T12:52:07;7.50;;;5.67;;
7917;SDS011;4004;42.624;23.386;2023-06-26T12:54:35;6.57;;;5.37;;
7917;SDS011;4004;42.624;23.386;2023-06-26T12:57:03;6.30;;;5.20;;
7917;SDS011;4004;42.624;23.386;2023-06-26T12:59:30;6.27;;;5.27;;
7917;SDS011;4004;42.624;23.386;2023-06-26T13:01:57;8.63;;;5.87;;
7917;SDS011;4004;42.624;23.386;2023-06-26T13:04:25;8.23;;;5.77;;
7917;SDS011;4004;42.624;23.386;2023-06-26T13:06:52;7.13;;;5.77;;
7917;SDS011;4004;42.624;23.386;2023-06-26T13:09:20;8.07;;;5.67;;
7917;SDS011;4004;42.624;23.386;2023-06-26T13:11:47;9.03;;;6.23;;
7917;SDS011;4004;42.624;23.386;2023-06-26T13:14:14;8.83;;;5.73;;
7917;SDS011;4004;42.624;23.386;2023-06-26T13:16:41;8.23;;;5.53;;
7917;SDS011;4004;42.624;23.386;2023-06-26T13:19:07;6.80;;;5.93;;
7917;SDS011;4004;42.624;23.386;2023-06-26T13:21:36;7.27;;;5.77;;
7917;SDS011;4004;42.624;23.386;2023-06-26T13:24:03;8.27;;;5.77;;
7917;SDS011;4004;42.624;23.386;2023-06-26T13:26:30;7.10;;;6.40;;
7917;SDS011;4004;42.624;23.386;2023-06-26T13:28:58;15.27;;;6.90;;
7917;SDS011;4004;42.624;23.386;2023-06-26T13:31:24;7.03;;;6.30;;
7917;SDS011;4004;42.624;23.386;2023-06-26T13:33:51;11.07;;;6.30;;
7917;SDS011;4004;42.624;23.386;2023-06-26T13:36:18;9.47;;;5.60;;
7917;SDS011;4004;42.624;23.386;2023-06-26T13:38:47;24.27;;;7.60;;
7917;SDS011;4004;42.624;23.386;2023-06-26T13:41:20;13.17;;;7.27;;
7917;SDS011;4004;42.624;23.386;2023-06-26T13:43:47;12.33;;;5.77;;
7917;SDS011;4004;42.624;23.386;2023-06-26T13:46:14;7.97;;;5.73;;
7917;SDS011;4004;42.624;23.386;2023-06-26T13:48:41;9.80;;;6.07;;
7917;SDS011;4004;42.624;23.386;2023-06-26T13:51:08;12.70;;;6.23;;
7917;SDS011;4004;42.624;23.386;2023-06-26T13:53:35;6.20;;;5.60;;
7917;SDS011;4004;42.624;23.386;2023-06-26T13:56:03;10.07;;;6.20;;
7917;SDS011;4004;42.624;23.386;2023-06-26T13:58:30;7.37;;;5.60;;
7917;SDS011;4004;42.624;23.386;2023-06-26T14:00:58;6.83;;;6.00;;
7917;SDS011;4004;42.624;23.386;2023-06-26T14:03:26;9.93;;;5.83;;
7917;SDS011;4004;42.624;23.386;2023-06-26T14:05:53;8.93;;;6.40;;
7917;SDS011;4004;42.624;23.386;2023-06-26T14:08:20;15.87;;;6.20;;
7917;SDS011;4004;42.624;23.386;2023-06-26T14:10:47;7.70;;;5.90;;
7917;SDS011;4004;42.624;23.386;2023-06-26T14:13:15;7.47;;;5.60;;
7917;SDS011;4004;42.624;23.386;2023-06-26T14:15:42;8.13;;;5.40;;
7917;SDS011;4004;42.624;23.386;2023-06-26T14:18:09;6.40;;;5.17;;
7917;SDS011;4004;42.624;23.386;2023-06-26T14:20:36;6.87;;;6.17;;
7917;SDS011;4004;42.624;23.386;2023-06-26T14:23:03;10.33;;;6.13;;
7917;SDS011;4004;42.624;23.386;2023-06-26T14:25:29;10.77;;;6.00;;
7917;SDS011;4004;42.624;23.386;2023-06-26T14:27:56;8.17;;;6.53;;
7917;SDS011;4004;42.624;23.386;2023-06-26T14:30:25;12.07;;;6.57;;
7917;SDS011;4004;42.624;23.386;2023-06-26T14:32:52;8.93;;;5.80;;
7917;SDS011;4004;42.624;23.386;2023-06-26T14:35:19;10.70;;;5.87;;
7917;SDS011;4004;42.624;23.386;2023-06-26T14:37:47;7.97;;;6.30;;
7917;SDS011;4004;42.624;23.386;2023-06-26T14:40:14;12.80;;;5.33;;
7917;SDS011;4004;42.624;23.386;2023-06-26T14:42:41;10.07;;;5.67;;
7917;SDS011;4004;42.624;23.386;2023-06-26T14:45:10;12.30;;;6.10;;
7917;SDS011;4004;42.624;23.386;2023-06-26T14:47:39;6.80;;;5.87;;
7917;SDS011;4004;42.624;23.386;2023-06-26T14:50:06;8.30;;;5.60;;
7917;SDS011;4004;42.624;23.386;2023-06-26T14:52:34;9.30;;;5.73;;